sensor_id;sensor_type;location;lat;lon;timestamp;P1;durP1;ratioP1;P2;durP2;ratioP2
46729;SDS011;32476;50.002;11.854;2023-08-30T00:01:24;8.03;;;6.77;;
46729;SDS011;32476;50.002;11.854;2023-08-30T00:03:51;6.60;;;5.90;;
46729;SDS011;32476;50.002;11.854;2023-08-30T00:06:17;7.03;;;6.33;;
46729;SDS011;32476;50.002;11.854;2023-08-30T00:08:45;6.57;;;5.67;;
46729;SDS011;32476;50.002;11.854;2023-08-30T00:11:11;8.63;;;7.70;;
46729;SDS011;32476;50.002;11.854;2023-08-30T00:13:39;8.60;;;6.73;;
46729;SDS011;32476;50.002;11.854;2023-08-30T00:16:07;7.87;;;7.00;;
46729;SDS011;32476;50.002;11.854;2023-08-30T00:18:33;9.63;;;7.03;;
46729;SDS011;32476;50.002;11.854;2023-08-30T00:20:59;9.60;;;5.70;;
46729;SDS011;32476;50.002;11.854;2023-08-30T00:23:27;7.90;;;5.97;;
46729;SDS011;32476;50.002;11.854;2023-08-30T00:25:53;6.93;;;6.10;;
46729;SDS011;32476;50.002;11.854;2023-08-30T00:28:18;7.63;;;5.37;;
46729;SDS011;32476;50.002;11.854;2023-08-30T00:30:46;9.83;;;6.67;;
46729;SDS011;32476;50.002;11.854;2023-08-30T00:33:18;7.13;;;6.00;;
46729;SDS011;32476;50.002;11.854;2023-08-30T00:35:44;8.17;;;5.83;;
46729;SDS011;32476;50.002;11.854;2023-08-30T00:38:11;11.57;;;6.90;;
46729;SDS011;32476;50.002;11.854;2023-08-30T00:40:38;8.97;;;6.63;;
46729;SDS011;32476;50.002;11.854;2023-08-30T00:43:05;9.37;;;5.90;;
46729;SDS011;32476;50.002;11.854;2023-08-30T00:45:34;7.17;;;5.83;;
46729;SDS011;32476;50.002;11.854;2023-08-30T00:48:04;7.50;;;5.60;;
46729;SDS011;32476;50.002;11.854;2023-08-30T00:50:30;8.70;;;5.77;;
46729;SDS011;32476;50.002;11.854;2023-08-30T00:52:58;6.00;;;5.43;;
46729;SDS011;32476;50.002;11.854;2023-08-30T00:55:24;7.23;;;5.63;;
46729;SDS011;32476;50.002;11.854;2023-08-30T00:57:50;10.83;;;6.23;;
46729;SDS011;32476;50.002;11.854;2023-08-30T01:00:17;6.67;;;5.47;;
46729;SDS011;32476;50.002;11.854;2023-08-30T01:02:43;7.83;;;5.20;;
46729;SDS011;32476;50.002;11.854;2023-08-30T01:05:10;7.27;;;4.80;;
46729;SDS011;32476;50.002;11.854;2023-08-30T01:07:37;4.93;;;4.33;;
46729;SDS011;32476;50.002;11.854;2023-08-30T01:10:03;5.13;;;3.80;;
46729;SDS011;32476;50.002;11.854;2023-08-30T01:12:33;5.23;;;4.33;;
46729;SDS011;32476;50.002;11.854;2023-08-30T01:15:10;5.20;;;4.60;;
46729;SDS011;32476;50.002;11.854;2023-08-30T01:17:46;4.87;;;3.93;;
46729;SDS011;32476;50.002;11.854;2023-08-30T01:20:16;4.70;;;4.17;;
46729;SDS011;32476;50.002;11.854;2023-08-30T01:25:45;8.43;;;4.10;;
46729;SDS011;32476;50.002;11.854;2023-08-30T01:32:40;6.60;;;4.60;;
46729;SDS011;32476;50.002;11.854;2023-08-30T01:35:09;5.37;;;4.87;;
46729;SDS011;32476;50.002;11.854;2023-08-30T01:37:35;9.87;;;5.20;;
46729;SDS011;32476;50.002;11.854;2023-08-30T01:40:03;7.20;;;5.77;;
46729;SDS011;32476;50.002;11.854;2023-08-30T01:42:32;7.40;;;5.97;;
46729;SDS011;32476;50.002;11.854;2023-08-30T01:44:58;8.80;;;7.00;;
46729;SDS011;32476;50.002;11.854;2023-08-30T01:47:28;10.03;;;6.93;;
46729;SDS011;32476;50.002;11.854;2023-08-30T01:49:57;9.27;;;6.47;;
46729;SDS011;32476;50.002;11.854;2023-08-30T01:52:23;8.97;;;6.67;;
46729;SDS011;32476;50.002;11.854;2023-08-30T01:54:51;9.97;;;5.83;;
46729;SDS011;32476;50.002;11.854;2023-08-30T01:57:20;9.30;;;6.30;;
46729;SDS011;32476;50.002;11.854;2023-08-30T01:59:46;7.07;;;5.47;;
46729;SDS011;32476;50.002;11.854;2023-08-30T02:02:12;9.67;;;6.20;;
46729;SDS011;32476;50.002;11.854;2023-08-30T02:04:39;7.73;;;6.40;;
46729;SDS011;32476;50.002;11.854;2023-08-30T02:07:08;7.63;;;6.63;;
46729;SDS011;32476;50.002;11.854;2023-08-30T02:10:00;8.20;;;7.13;;
46729;SDS011;32476;50.002;11.854;2023-08-30T02:12:52;8.87;;;6.80;;
46729;SDS011;32476;50.002;11.854;2023-08-30T02:15:21;9.07;;;6.90;;
46729;SDS011;32476;50.002;11.854;2023-08-30T02:17:50;8.07;;;6.67;;
46729;SDS011;32476;50.002;11.854;2023-08-30T02:20:17;8.37;;;7.20;;
46729;SDS011;32476;50.002;11.854;2023-08-30T02:22:44;6.97;;;6.13;;
46729;SDS011;32476;50.002;11.854;2023-08-30T02:25:10;8.67;;;6.77;;
46729;SDS011;32476;50.002;11.854;2023-08-30T02:27:36;9.60;;;7.67;;
46729;SDS011;32476;50.002;11.854;2023-08-30T02:30:04;10.17;;;6.77;;
46729;SDS011;32476;50.002;11.854;2023-08-30T02:32:31;8.27;;;6.97;;
46729;SDS011;32476;50.002;11.854;2023-08-30T02:34:57;10.00;;;8.00;;
46729;SDS011;32476;50.002;11.854;2023-08-30T02:37:24;9.07;;;6.73;;
46729;SDS011;32476;50.002;11.854;2023-08-30T02:39:50;11.80;;;7.37;;
46729;SDS011;32476;50.002;11.854;2023-08-30T02:42:16;8.63;;;7.53;;
46729;SDS011;32476;50.002;11.854;2023-08-30T02:44:44;9.20;;;7.67;;
46729;SDS011;32476;50.002;11.854;2023-08-30T02:47:10;10.53;;;7.50;;
46729;SDS011;32476;50.002;11.854;2023-08-30T02:49:35;7.30;;;6.60;;
46729;SDS011;32476;50.002;11.854;2023-08-30T02:52:03;7.40;;;6.27;;
46729;SDS011;32476;50.002;11.854;2023-08-30T02:54:29;9.43;;;6.67;;
46729;SDS011;32476;50.002;11.854;2023-08-30T02:56:55;7.93;;;6.17;;
46729;SDS011;32476;50.002;11.854;2023-08-30T02:59:22;9.13;;;7.60;;
46729;SDS011;32476;50.002;11.854;2023-08-30T03:01:48;8.63;;;7.33;;
46729;SDS011;32476;50.002;11.854;2023-08-30T03:04:14;10.90;;;7.03;;
46729;SDS011;32476;50.002;11.854;2023-08-30T03:06:42;8.83;;;6.03;;
46729;SDS011;32476;50.002;11.854;2023-08-30T03:09:08;9.07;;;7.53;;
46729;SDS011;32476;50.002;11.854;2023-08-30T03:11:34;9.00;;;6.73;;
46729;SDS011;32476;50.002;11.854;2023-08-30T03:14:01;7.70;;;6.90;;
46729;SDS011;32476;50.002;11.854;2023-08-30T03:16:28;9.07;;;6.67;;
46729;SDS011;32476;50.002;11.854;2023-08-30T03:18:54;7.30;;;5.80;;
46729;SDS011;32476;50.002;11.854;2023-08-30T03:21:21;7.73;;;6.87;;
46729;SDS011;32476;50.002;11.854;2023-08-30T03:23:47;7.50;;;6.70;;
46729;SDS011;32476;50.002;11.854;2023-08-30T03:26:14;11.57;;;6.83;;
46729;SDS011;32476;50.002;11.854;2023-08-30T03:28:43;10.43;;;6.27;;
46729;SDS011;32476;50.002;11.854;2023-08-30T03:33:40;7.70;;;6.47;;
46729;SDS011;32476;50.002;11.854;2023-08-30T03:36:11;8.13;;;6.03;;
46729;SDS011;32476;50.002;11.854;2023-08-30T03:38:39;9.30;;;5.50;;
46729;SDS011;32476;50.002;11.854;2023-08-30T03:41:05;8.47;;;5.40;;
46729;SDS011;32476;50.002;11.854;2023-08-30T03:43:33;6.60;;;5.13;;
46729;SDS011;32476;50.002;11.854;2023-08-30T03:45:59;7.63;;;5.77;;
46729;SDS011;32476;50.002;11.854;2023-08-30T03:48:27;7.37;;;5.73;;
46729;SDS011;32476;50.002;11.854;2023-08-30T03:50:54;8.63;;;5.90;;
46729;SDS011;32476;50.002;11.854;2023-08-30T03:53:21;6.93;;;5.73;;
46729;SDS011;32476;50.002;11.854;2023-08-30T03:55:47;7.87;;;5.60;;
46729;SDS011;32476;50.002;11.854;2023-08-30T03:58:15;9.13;;;5.77;;
46729;SDS011;32476;50.002;11.854;2023-08-30T04:00:43;10.53;;;5.67;;
46729;SDS011;32476;50.002;11.854;2023-08-30T04:03:10;7.03;;;5.13;;
46729;SDS011;32476;50.002;11.854;2023-08-30T04:05:37;10.07;;;4.87;;
46729;SDS011;32476;50.002;11.854;2023-08-30T04:08:03;5.83;;;4.67;;
46729;SDS011;32476;50.002;11.854;2023-08-30T04:10:37;4.47;;;3.80;;
46729;SDS011;32476;50.002;11.854;2023-08-30T04:13:06;6.07;;;4.03;;
46729;SDS011;32476;50.002;11.854;2023-08-30T04:15:34;9.70;;;3.77;;
46729;SDS011;32476;50.002;11.854;2023-08-30T04:18:01;3.80;;;3.40;;
46729;SDS011;32476;50.002;11.854;2023-08-30T04:20:30;19.33;;;13.10;;
46729;SDS011;32476;50.002;11.854;2023-08-30T04:22:57;43.00;;;27.53;;
46729;SDS011;32476;50.002;11.854;2023-08-30T04:25:27;7.63;;;4.97;;
46729;SDS011;32476;50.002;11.854;2023-08-30T04:27:58;10.10;;;4.47;;
46729;SDS011;32476;50.002;11.854;2023-08-30T04:30:24;4.97;;;3.50;;
46729;SDS011;32476;50.002;11.854;2023-08-30T04:32:50;4.30;;;3.53;;
46729;SDS011;32476;50.002;11.854;2023-08-30T04:35:17;3.63;;;3.13;;
46729;SDS011;32476;50.002;11.854;2023-08-30T04:37:43;4.43;;;2.90;;
46729;SDS011;32476;50.002;11.854;2023-08-30T04:40:10;3.13;;;2.70;;
46729;SDS011;32476;50.002;11.854;2023-08-30T04:42:38;3.03;;;2.17;;
46729;SDS011;32476;50.002;11.854;2023-08-30T04:45:05;3.43;;;2.60;;
46729;SDS011;32476;50.002;11.854;2023-08-30T04:47:32;3.07;;;2.30;;
46729;SDS011;32476;50.002;11.854;2023-08-30T04:50:00;3.77;;;2.67;;
46729;SDS011;32476;50.002;11.854;2023-08-30T04:52:26;2.97;;;2.40;;
46729;SDS011;32476;50.002;11.854;2023-08-30T04:54:52;2.70;;;2.40;;
46729;SDS011;32476;50.002;11.854;2023-08-30T04:57:19;4.73;;;2.27;;
46729;SDS011;32476;50.002;11.854;2023-08-30T04:59:45;4.87;;;2.63;;
46729;SDS011;32476;50.002;11.854;2023-08-30T05:02:11;5.43;;;3.23;;
46729;SDS011;32476;50.002;11.854;2023-08-30T05:04:39;5.93;;;2.43;;
46729;SDS011;32476;50.002;11.854;2023-08-30T05:07:05;3.30;;;2.47;;
46729;SDS011;32476;50.002;11.854;2023-08-30T05:09:31;3.57;;;2.90;;
46729;SDS011;32476;50.002;11.854;2023-08-30T05:12:00;2.83;;;2.30;;
46729;SDS011;32476;50.002;11.854;2023-08-30T05:14:26;4.60;;;2.57;;
46729;SDS011;32476;50.002;11.854;2023-08-30T05:16:52;4.43;;;2.40;;
46729;SDS011;32476;50.002;11.854;2023-08-30T05:19:19;4.57;;;2.57;;
46729;SDS011;32476;50.002;11.854;2023-08-30T05:21:45;4.60;;;2.10;;
46729;SDS011;32476;50.002;11.854;2023-08-30T05:24:11;2.43;;;2.00;;
46729;SDS011;32476;50.002;11.854;2023-08-30T05:26:39;4.57;;;2.03;;
46729;SDS011;32476;50.002;11.854;2023-08-30T05:29:05;5.07;;;2.53;;
46729;SDS011;32476;50.002;11.854;2023-08-30T05:31:31;4.13;;;2.37;;
46729;SDS011;32476;50.002;11.854;2023-08-30T05:33:58;5.03;;;2.70;;
46729;SDS011;32476;50.002;11.854;2023-08-30T05:36:24;5.27;;;2.30;;
46729;SDS011;32476;50.002;11.854;2023-08-30T05:38:50;2.60;;;2.23;;
46729;SDS011;32476;50.002;11.854;2023-08-30T05:41:17;5.53;;;2.90;;
46729;SDS011;32476;50.002;11.854;2023-08-30T05:43:43;12.13;;;2.77;;
46729;SDS011;32476;50.002;11.854;2023-08-30T05:46:09;4.20;;;2.43;;
46729;SDS011;32476;50.002;11.854;2023-08-30T05:48:41;6.43;;;3.00;;
46729;SDS011;32476;50.002;11.854;2023-08-30T05:51:07;6.50;;;3.33;;
46729;SDS011;32476;50.002;11.854;2023-08-30T05:53:33;8.90;;;3.70;;
46729;SDS011;32476;50.002;11.854;2023-08-30T05:56:00;5.20;;;3.23;;
46729;SDS011;32476;50.002;11.854;2023-08-30T05:58:26;4.57;;;3.67;;
46729;SDS011;32476;50.002;11.854;2023-08-30T06:00:52;4.13;;;3.13;;
46729;SDS011;32476;50.002;11.854;2023-08-30T06:03:20;5.03;;;2.93;;
46729;SDS011;32476;50.002;11.854;2023-08-30T06:05:46;4.20;;;2.83;;
46729;SDS011;32476;50.002;11.854;2023-08-30T06:08:13;3.67;;;3.00;;
46729;SDS011;32476;50.002;11.854;2023-08-30T06:10:41;5.97;;;3.10;;
46729;SDS011;32476;50.002;11.854;2023-08-30T06:13:07;7.57;;;6.77;;
46729;SDS011;32476;50.002;11.854;2023-08-30T06:15:34;31.57;;;17.47;;
46729;SDS011;32476;50.002;11.854;2023-08-30T06:18:04;5.30;;;4.13;;
46729;SDS011;32476;50.002;11.854;2023-08-30T06:20:30;8.50;;;6.10;;
46729;SDS011;32476;50.002;11.854;2023-08-30T06:22:57;6.40;;;5.00;;
46729;SDS011;32476;50.002;11.854;2023-08-30T06:25:25;6.53;;;5.83;;
46729;SDS011;32476;50.002;11.854;2023-08-30T06:27:55;6.63;;;3.60;;
46729;SDS011;32476;50.002;11.854;2023-08-30T06:30:28;4.73;;;2.60;;
46729;SDS011;32476;50.002;11.854;2023-08-30T06:32:55;3.30;;;2.70;;
46729;SDS011;32476;50.002;11.854;2023-08-30T06:35:22;6.23;;;2.37;;
46729;SDS011;32476;50.002;11.854;2023-08-30T06:37:50;3.13;;;2.60;;
46729;SDS011;32476;50.002;11.854;2023-08-30T06:40:16;2.50;;;2.30;;
46729;SDS011;32476;50.002;11.854;2023-08-30T06:42:42;4.23;;;2.50;;
46729;SDS011;32476;50.002;11.854;2023-08-30T06:45:11;7.43;;;2.90;;
46729;SDS011;32476;50.002;11.854;2023-08-30T06:47:37;4.83;;;3.80;;
46729;SDS011;32476;50.002;11.854;2023-08-30T06:50:02;6.47;;;3.70;;
46729;SDS011;32476;50.002;11.854;2023-08-30T06:52:30;4.03;;;2.77;;
46729;SDS011;32476;50.002;11.854;2023-08-30T06:54:56;3.77;;;2.70;;
46729;SDS011;32476;50.002;11.854;2023-08-30T06:57:22;3.17;;;2.50;;
46729;SDS011;32476;50.002;11.854;2023-08-30T06:59:49;3.97;;;2.83;;
46729;SDS011;32476;50.002;11.854;2023-08-30T07:02:15;5.53;;;3.13;;
46729;SDS011;32476;50.002;11.854;2023-08-30T07:04:41;4.33;;;2.63;;
46729;SDS011;32476;50.002;11.854;2023-08-30T07:07:09;6.97;;;2.73;;
46729;SDS011;32476;50.002;11.854;2023-08-30T07:09:35;4.37;;;2.60;;
46729;SDS011;32476;50.002;11.854;2023-08-30T07:12:01;3.17;;;2.80;;
46729;SDS011;32476;50.002;11.854;2023-08-30T07:14:28;3.50;;;2.50;;
46729;SDS011;32476;50.002;11.854;2023-08-30T07:16:54;7.77;;;3.00;;
46729;SDS011;32476;50.002;11.854;2023-08-30T07:19:20;3.93;;;2.63;;
46729;SDS011;32476;50.002;11.854;2023-08-30T07:21:47;4.33;;;2.83;;
46729;SDS011;32476;50.002;11.854;2023-08-30T07:24:13;4.00;;;2.60;;
46729;SDS011;32476;50.002;11.854;2023-08-30T07:26:39;5.10;;;2.90;;
46729;SDS011;32476;50.002;11.854;2023-08-30T07:29:06;6.50;;;2.63;;
46729;SDS011;32476;50.002;11.854;2023-08-30T07:31:34;3.30;;;2.97;;
46729;SDS011;32476;50.002;11.854;2023-08-30T07:34:00;3.03;;;2.67;;
46729;SDS011;32476;50.002;11.854;2023-08-30T07:36:27;5.00;;;2.60;;
46729;SDS011;32476;50.002;11.854;2023-08-30T07:38:55;5.00;;;2.90;;
46729;SDS011;32476;50.002;11.854;2023-08-30T07:41:21;4.13;;;2.63;;
46729;SDS011;32476;50.002;11.854;2023-08-30T07:43:49;7.27;;;2.80;;
46729;SDS011;32476;50.002;11.854;2023-08-30T07:46:15;4.80;;;3.00;;
46729;SDS011;32476;50.002;11.854;2023-08-30T07:48:42;3.53;;;2.50;;
46729;SDS011;32476;50.002;11.854;2023-08-30T07:51:09;3.37;;;2.43;;
46729;SDS011;32476;50.002;11.854;2023-08-30T07:53:35;4.37;;;2.77;;
46729;SDS011;32476;50.002;11.854;2023-08-30T07:56:01;5.57;;;2.23;;
46729;SDS011;32476;50.002;11.854;2023-08-30T07:58:28;2.78;;;2.15;;
46729;SDS011;32476;50.002;11.854;2023-08-30T08:00:54;2.40;;;2.20;;
46729;SDS011;32476;50.002;11.854;2023-08-30T08:03:20;4.57;;;2.30;;
46729;SDS011;32476;50.002;11.854;2023-08-30T08:05:48;3.30;;;2.37;;
46729;SDS011;32476;50.002;11.854;2023-08-30T08:08:14;4.93;;;2.40;;
46729;SDS011;32476;50.002;11.854;2023-08-30T08:10:44;5.33;;;2.07;;
46729;SDS011;32476;50.002;11.854;2023-08-30T08:13:12;2.35;;;1.98;;
46729;SDS011;32476;50.002;11.854;2023-08-30T08:15:38;4.18;;;2.15;;
46729;SDS011;32476;50.002;11.854;2023-08-30T08:18:04;4.22;;;2.08;;
46729;SDS011;32476;50.002;11.854;2023-08-30T08:20:31;4.40;;;2.10;;
46729;SDS011;32476;50.002;11.854;2023-08-30T08:22:58;5.97;;;2.25;;
46729;SDS011;32476;50.002;11.854;2023-08-30T08:25:24;5.35;;;2.45;;
46729;SDS011;32476;50.002;11.854;2023-08-30T08:27:51;4.55;;;1.77;;
46729;SDS011;32476;50.002;11.854;2023-08-30T08:30:17;7.63;;;1.67;;
46729;SDS011;32476;50.002;11.854;2023-08-30T08:32:45;4.28;;;2.15;;
46729;SDS011;32476;50.002;11.854;2023-08-30T08:35:14;2.13;;;1.60;;
46729;SDS011;32476;50.002;11.854;2023-08-30T08:37:40;4.32;;;1.58;;
46729;SDS011;32476;50.002;11.854;2023-08-30T08:40:06;4.05;;;1.77;;
46729;SDS011;32476;50.002;11.854;2023-08-30T08:42:37;1.58;;;1.23;;
46729;SDS011;32476;50.002;11.854;2023-08-30T08:45:04;3.80;;;1.67;;
46729;SDS011;32476;50.002;11.854;2023-08-30T08:47:31;3.13;;;1.83;;
46729;SDS011;32476;50.002;11.854;2023-08-30T08:49:58;2.10;;;1.63;;
46729;SDS011;32476;50.002;11.854;2023-08-30T08:52:30;3.58;;;1.63;;
46729;SDS011;32476;50.002;11.854;2023-08-30T08:54:58;4.43;;;1.70;;
46729;SDS011;32476;50.002;11.854;2023-08-30T08:57:25;4.47;;;1.73;;
46729;SDS011;32476;50.002;11.854;2023-08-30T08:59:55;3.95;;;1.77;;
46729;SDS011;32476;50.002;11.854;2023-08-30T09:02:23;3.30;;;1.67;;
46729;SDS011;32476;50.002;11.854;2023-08-30T09:04:51;2.92;;;1.73;;
46729;SDS011;32476;50.002;11.854;2023-08-30T09:07:18;3.00;;;1.50;;
46729;SDS011;32476;50.002;11.854;2023-08-30T09:09:46;2.55;;;1.80;;
46729;SDS011;32476;50.002;11.854;2023-08-30T09:12:13;2.60;;;1.48;;
46729;SDS011;32476;50.002;11.854;2023-08-30T09:14:39;2.95;;;1.52;;
46729;SDS011;32476;50.002;11.854;2023-08-30T09:17:07;2.78;;;1.60;;
46729;SDS011;32476;50.002;11.854;2023-08-30T09:19:32;4.80;;;1.90;;
46729;SDS011;32476;50.002;11.854;2023-08-30T09:21:59;2.28;;;1.65;;
46729;SDS011;32476;50.002;11.854;2023-08-30T09:24:37;3.60;;;1.60;;
46729;SDS011;32476;50.002;11.854;2023-08-30T09:27:06;1.73;;;1.60;;
46729;SDS011;32476;50.002;11.854;2023-08-30T09:29:34;1.83;;;1.40;;
46729;SDS011;32476;50.002;11.854;2023-08-30T09:32:01;3.47;;;1.23;;
46729;SDS011;32476;50.002;11.854;2023-08-30T09:34:27;2.38;;;1.50;;
46729;SDS011;32476;50.002;11.854;2023-08-30T09:36:54;4.78;;;1.65;;
46729;SDS011;32476;50.002;11.854;2023-08-30T09:39:20;2.30;;;1.60;;
46729;SDS011;32476;50.002;11.854;2023-08-30T09:41:50;2.00;;;1.80;;
46729;SDS011;32476;50.002;11.854;2023-08-30T09:44:18;2.67;;;1.83;;
46729;SDS011;32476;50.002;11.854;2023-08-30T09:46:49;2.17;;;1.55;;
46729;SDS011;32476;50.002;11.854;2023-08-30T09:49:22;2.15;;;1.55;;
46729;SDS011;32476;50.002;11.854;2023-08-30T09:51:50;5.55;;;1.60;;
46729;SDS011;32476;50.002;11.854;2023-08-30T09:54:18;2.60;;;2.05;;
46729;SDS011;32476;50.002;11.854;2023-08-30T09:56:48;5.07;;;2.00;;
46729;SDS011;32476;50.002;11.854;2023-08-30T09:59:17;2.30;;;1.50;;
46729;SDS011;32476;50.002;11.854;2023-08-30T10:01:45;3.45;;;1.80;;
46729;SDS011;32476;50.002;11.854;2023-08-30T10:04:15;2.67;;;1.85;;
46729;SDS011;32476;50.002;11.854;2023-08-30T10:06:40;3.25;;;1.48;;
46729;SDS011;32476;50.002;11.854;2023-08-30T10:09:08;2.78;;;1.95;;
46729;SDS011;32476;50.002;11.854;2023-08-30T10:11:37;3.63;;;1.88;;
46729;SDS011;32476;50.002;11.854;2023-08-30T10:14:04;2.47;;;1.60;;
46729;SDS011;32476;50.002;11.854;2023-08-30T10:17:05;4.25;;;1.45;;
46729;SDS011;32476;50.002;11.854;2023-08-30T10:19:30;2.63;;;1.88;;
46729;SDS011;32476;50.002;11.854;2023-08-30T10:22:03;1.55;;;1.38;;
46729;SDS011;32476;50.002;11.854;2023-08-30T10:24:37;4.28;;;1.80;;
46729;SDS011;32476;50.002;11.854;2023-08-30T10:27:09;3.30;;;1.75;;
46729;SDS011;32476;50.002;11.854;2023-08-30T10:29:38;1.73;;;1.38;;
46729;SDS011;32476;50.002;11.854;2023-08-30T10:32:06;3.05;;;2.22;;
46729;SDS011;32476;50.002;11.854;2023-08-30T10:34:35;4.47;;;2.00;;
46729;SDS011;32476;50.002;11.854;2023-08-30T10:37:06;2.63;;;2.13;;
46729;SDS011;32476;50.002;11.854;2023-08-30T10:39:37;6.35;;;2.00;;
46729;SDS011;32476;50.002;11.854;2023-08-30T10:42:09;2.45;;;1.67;;
46729;SDS011;32476;50.002;11.854;2023-08-30T10:44:51;2.17;;;1.95;;
46729;SDS011;32476;50.002;11.854;2023-08-30T10:47:36;2.85;;;1.92;;
46729;SDS011;32476;50.002;11.854;2023-08-30T10:50:04;1.90;;;1.70;;
46729;SDS011;32476;50.002;11.854;2023-08-30T10:52:35;2.63;;;1.98;;
46729;SDS011;32476;50.002;11.854;2023-08-30T10:55:08;4.10;;;1.63;;
46729;SDS011;32476;50.002;11.854;2023-08-30T10:57:42;2.80;;;1.63;;
46729;SDS011;32476;50.002;11.854;2023-08-30T11:02:49;2.70;;;2.17;;
46729;SDS011;32476;50.002;11.854;2023-08-30T11:05:16;5.53;;;2.10;;
46729;SDS011;32476;50.002;11.854;2023-08-30T11:07:47;3.15;;;1.98;;
46729;SDS011;32476;50.002;11.854;2023-08-30T11:10:16;3.17;;;2.22;;
46729;SDS011;32476;50.002;11.854;2023-08-30T11:12:44;1.70;;;1.60;;
46729;SDS011;32476;50.002;11.854;2023-08-30T11:15:12;4.07;;;2.00;;
46729;SDS011;32476;50.002;11.854;2023-08-30T11:17:39;2.67;;;1.90;;
46729;SDS011;32476;50.002;11.854;2023-08-30T11:20:07;2.83;;;1.70;;
46729;SDS011;32476;50.002;11.854;2023-08-30T11:22:41;4.65;;;2.22;;
46729;SDS011;32476;50.002;11.854;2023-08-30T11:25:12;1.85;;;1.67;;
46729;SDS011;32476;50.002;11.854;2023-08-30T11:27:42;3.72;;;2.30;;
46729;SDS011;32476;50.002;11.854;2023-08-30T11:30:09;3.00;;;2.08;;
46729;SDS011;32476;50.002;11.854;2023-08-30T11:32:37;4.13;;;2.15;;
46729;SDS011;32476;50.002;11.854;2023-08-30T11:35:06;4.35;;;2.10;;
46729;SDS011;32476;50.002;11.854;2023-08-30T11:37:33;2.88;;;2.15;;
46729;SDS011;32476;50.002;11.854;2023-08-30T11:39:59;5.05;;;1.92;;
46729;SDS011;32476;50.002;11.854;2023-08-30T11:42:28;6.95;;;2.17;;
46729;SDS011;32476;50.002;11.854;2023-08-30T11:44:57;2.72;;;1.80;;
46729;SDS011;32476;50.002;11.854;2023-08-30T11:47:25;4.95;;;2.22;;
46729;SDS011;32476;50.002;11.854;2023-08-30T11:49:55;2.88;;;2.10;;
46729;SDS011;32476;50.002;11.854;2023-08-30T11:52:23;2.15;;;1.90;;
46729;SDS011;32476;50.002;11.854;2023-08-30T11:54:50;6.25;;;1.88;;
46729;SDS011;32476;50.002;11.854;2023-08-30T11:57:19;3.38;;;1.85;;
46729;SDS011;32476;50.002;11.854;2023-08-30T11:59:46;2.38;;;2.17;;
46729;SDS011;32476;50.002;11.854;2023-08-30T12:02:13;3.13;;;1.85;;
46729;SDS011;32476;50.002;11.854;2023-08-30T12:04:45;2.25;;;2.05;;
46729;SDS011;32476;50.002;11.854;2023-08-30T12:07:24;2.38;;;2.15;;
46729;SDS011;32476;50.002;11.854;2023-08-30T12:10:03;2.38;;;1.90;;
46729;SDS011;32476;50.002;11.854;2023-08-30T12:12:35;3.33;;;2.50;;
46729;SDS011;32476;50.002;11.854;2023-08-30T12:15:09;4.95;;;2.38;;
46729;SDS011;32476;50.002;11.854;2023-08-30T12:17:37;2.45;;;2.25;;
46729;SDS011;32476;50.002;11.854;2023-08-30T12:20:05;3.15;;;2.13;;
46729;SDS011;32476;50.002;11.854;2023-08-30T12:22:36;3.92;;;2.10;;
46729;SDS011;32476;50.002;11.854;2023-08-30T12:27:46;5.07;;;2.10;;
46729;SDS011;32476;50.002;11.854;2023-08-30T12:30:14;4.13;;;2.15;;
46729;SDS011;32476;50.002;11.854;2023-08-30T12:32:42;4.03;;;2.10;;
46729;SDS011;32476;50.002;11.854;2023-08-30T12:35:13;3.00;;;1.83;;
46729;SDS011;32476;50.002;11.854;2023-08-30T12:37:40;3.33;;;1.77;;
46729;SDS011;32476;50.002;11.854;2023-08-30T12:40:06;7.75;;;2.00;;
46729;SDS011;32476;50.002;11.854;2023-08-30T12:42:34;2.42;;;1.50;;
46729;SDS011;32476;50.002;11.854;2023-08-30T12:45:00;4.10;;;1.67;;
46729;SDS011;32476;50.002;11.854;2023-08-30T12:47:26;3.80;;;2.13;;
46729;SDS011;32476;50.002;11.854;2023-08-30T12:49:53;3.00;;;2.00;;
46729;SDS011;32476;50.002;11.854;2023-08-30T12:52:19;2.10;;;1.80;;
46729;SDS011;32476;50.002;11.854;2023-08-30T12:54:45;3.35;;;2.00;;
46729;SDS011;32476;50.002;11.854;2023-08-30T12:57:14;2.75;;;1.88;;
46729;SDS011;32476;50.002;11.854;2023-08-30T12:59:40;4.00;;;2.00;;
46729;SDS011;32476;50.002;11.854;2023-08-30T13:02:06;3.25;;;1.90;;
46729;SDS011;32476;50.002;11.854;2023-08-30T13:04:35;4.07;;;1.90;;
46729;SDS011;32476;50.002;11.854;2023-08-30T13:07:02;2.10;;;1.75;;
46729;SDS011;32476;50.002;11.854;2023-08-30T13:09:29;2.90;;;2.03;;
46729;SDS011;32476;50.002;11.854;2023-08-30T13:11:57;2.42;;;1.80;;
46729;SDS011;32476;50.002;11.854;2023-08-30T13:14:23;7.22;;;2.00;;
46729;SDS011;32476;50.002;11.854;2023-08-30T13:16:49;2.72;;;2.20;;
46729;SDS011;32476;50.002;11.854;2023-08-30T13:19:16;3.50;;;2.05;;
46729;SDS011;32476;50.002;11.854;2023-08-30T13:21:42;4.07;;;2.25;;
46729;SDS011;32476;50.002;11.854;2023-08-30T13:24:08;3.15;;;2.30;;
46729;SDS011;32476;50.002;11.854;2023-08-30T13:26:35;5.65;;;2.53;;
46729;SDS011;32476;50.002;11.854;2023-08-30T13:29:01;2.03;;;1.80;;
46729;SDS011;32476;50.002;11.854;2023-08-30T13:31:27;3.35;;;1.92;;
46729;SDS011;32476;50.002;11.854;2023-08-30T13:33:55;4.40;;;2.60;;
46729;SDS011;32476;50.002;11.854;2023-08-30T13:36:21;2.42;;;2.22;;
46729;SDS011;32476;50.002;11.854;2023-08-30T13:38:47;4.28;;;1.88;;
46729;SDS011;32476;50.002;11.854;2023-08-30T13:41:14;2.97;;;2.00;;
46729;SDS011;32476;50.002;11.854;2023-08-30T13:43:40;2.20;;;2.00;;
46729;SDS011;32476;50.002;11.854;2023-08-30T13:46:06;3.30;;;1.77;;
46729;SDS011;32476;50.002;11.854;2023-08-30T13:48:33;4.05;;;2.30;;
46729;SDS011;32476;50.002;11.854;2023-08-30T13:50:59;3.72;;;2.20;;
46729;SDS011;32476;50.002;11.854;2023-08-30T13:53:25;3.05;;;2.00;;
46729;SDS011;32476;50.002;11.854;2023-08-30T13:55:53;3.25;;;2.08;;
46729;SDS011;32476;50.002;11.854;2023-08-30T13:58:19;4.55;;;3.00;;
46729;SDS011;32476;50.002;11.854;2023-08-30T14:00:44;2.72;;;2.20;;
46729;SDS011;32476;50.002;11.854;2023-08-30T14:03:12;3.90;;;2.72;;
46729;SDS011;32476;50.002;11.854;2023-08-30T14:05:38;5.15;;;2.92;;
46729;SDS011;32476;50.002;11.854;2023-08-30T14:08:06;4.20;;;2.50;;
46729;SDS011;32476;50.002;11.854;2023-08-30T14:10:34;2.90;;;2.30;;
46729;SDS011;32476;50.002;11.854;2023-08-30T14:13:00;4.63;;;2.40;;
46729;SDS011;32476;50.002;11.854;2023-08-30T14:15:26;2.53;;;2.22;;
46729;SDS011;32476;50.002;11.854;2023-08-30T14:17:54;5.18;;;2.22;;
46729;SDS011;32476;50.002;11.854;2023-08-30T14:20:20;5.03;;;2.20;;
46729;SDS011;32476;50.002;11.854;2023-08-30T14:22:46;3.72;;;2.65;;
46729;SDS011;32476;50.002;11.854;2023-08-30T14:25:13;3.50;;;2.28;;
46729;SDS011;32476;50.002;11.854;2023-08-30T14:27:39;2.70;;;2.33;;
46729;SDS011;32476;50.002;11.854;2023-08-30T14:30:05;2.95;;;2.65;;
46729;SDS011;32476;50.002;11.854;2023-08-30T14:32:33;3.83;;;2.78;;
46729;SDS011;32476;50.002;11.854;2023-08-30T14:34:59;4.88;;;2.88;;
46729;SDS011;32476;50.002;11.854;2023-08-30T14:37:25;3.22;;;2.53;;
46729;SDS011;32476;50.002;11.854;2023-08-30T14:39:53;3.70;;;3.20;;
46729;SDS011;32476;50.002;11.854;2023-08-30T14:42:19;3.15;;;2.53;;
46729;SDS011;32476;50.002;11.854;2023-08-30T14:44:49;3.90;;;2.65;;
46729;SDS011;32476;50.002;11.854;2023-08-30T14:47:20;4.55;;;2.70;;
46729;SDS011;32476;50.002;11.854;2023-08-30T14:49:46;2.63;;;2.42;;
46729;SDS011;32476;50.002;11.854;2023-08-30T14:52:13;8.98;;;3.53;;